Time;durP1;ratioP1;P1;durP2;ratioP2;P2;SDS_P1;SDS_P2;PMS_P1;PMS_P2;Temp;Humidity;BMP_temperature;BMP_pressure;BME280_temperature;BME280_humidity;BME280_pressure;Samples;Min_cycle;Max_cycle;Signal;HPM_P1;HPM_P2
2023/04/08 00:00:14;;;;;;;52.70;21.92;;;8.10;99.90;;;;;;4973400;28;20031;-67
2023/04/08 00:02:40;;;;;;;57.92;19.20;;;8.10;99.90;;;;;;4981573;28;20393;-66
2023/04/08 00:05:06;;;;;;;52.85;20.73;;;8.20;99.90;;;;;;4990268;28;20507;-67
2023/04/08 00:07:32;;;;;;;52.58;23.40;;;8.20;99.90;;;;;;4980702;28;20030;-66
2023/04/08 00:09:58;;;;;;;53.17;21.17;;;8.10;99.90;;;;;;4991197;28;20034;-67
2023/04/08 00:12:23;;;;;;;47.80;21.23;;;8.10;99.90;;;;;;4992261;28;20034;-68
2023/04/08 00:14:49;;;;;;;46.75;19.90;;;8.10;99.90;;;;;;4992413;28;20053;-67
2023/04/08 00:17:15;;;;;;;48.03;20.35;;;8.10;99.90;;;;;;4990421;28;20480;-67
2023/04/08 00:19:41;;;;;;;48.80;20.98;;;8.10;99.90;;;;;;4991379;28;20043;-66
2023/04/08 00:22:07;;;;;;;53.92;21.13;;;8.10;99.90;;;;;;4973681;28;20034;-67
2023/04/08 00:24:32;;;;;;;49.47;22.02;;;8.20;99.90;;;;;;4972795;28;20084;-67
2023/04/08 00:26:58;;;;;;;52.70;21.85;;;8.20;99.90;;;;;;4972958;28;20027;-67
2023/04/08 00:29:24;;;;;;;53.78;23.25;;;8.10;99.90;;;;;;4972533;28;20524;-67
2023/04/08 00:31:50;;;;;;;59.17;23.58;;;8.10;99.90;;;;;;5000231;28;20068;-67
2023/04/08 00:34:16;;;;;;;51.50;21.23;;;8.10;99.90;;;;;;4987559;28;20484;-66
2023/04/08 00:36:41;;;;;;;58.45;22.25;;;8.10;99.90;;;;;;4990964;28;20045;-68
2023/04/08 00:39:07;;;;;;;54.85;22.02;;;8.10;99.90;;;;;;4991976;28;20109;-67
2023/04/08 00:41:34;;;;;;;55.83;23.15;;;8.10;99.90;;;;;;4992052;28;20061;-67
2023/04/08 00:44:00;;;;;;;49.28;21.25;;;8.10;99.90;;;;;;4992296;28;20030;-67
2023/04/08 00:46:26;;;;;;;47.28;20.98;;;8.10;99.90;;;;;;4991056;28;20038;-67
2023/04/08 00:48:53;;;;;;;54.08;22.73;;;8.10;99.90;;;;;;4988785;28;20069;-67
2023/04/08 00:51:20;;;;;;;52.35;22.45;;;8.00;99.90;;;;;;4985640;28;20105;-68
2023/04/08 00:53:45;;;;;;;50.08;21.80;;;8.10;99.90;;;;;;4992180;28;20614;-67
2023/04/08 00:56:11;;;;;;;50.75;21.50;;;8.10;99.90;;;;;;4991033;28;20031;-67
2023/04/08 00:58:37;;;;;;;55.95;22.10;;;8.10;99.90;;;;;;4984618;28;20031;-67
2023/04/08 01:01:09;;;;;;;53.00;20.45;;;8.10;99.90;;;;;;4972550;28;20481;-66
2023/04/08 01:04:06;;;;;;;46.33;19.60;;;8.10;99.90;;;;;;4988751;28;20506;-67
2023/04/08 01:06:48;;;;;;;53.70;20.75;;;8.10;99.90;;;;;;4985867;28;20022;-67
2023/04/08 01:09:20;;;;;;;51.08;21.05;;;8.10;99.90;;;;;;4991816;28;20030;-66
2023/04/08 01:11:49;;;;;;;52.33;20.83;;;8.10;99.90;;;;;;4989816;28;20030;-67
2023/04/08 01:14:19;;;;;;;48.05;19.85;;;8.10;99.90;;;;;;4991346;28;20053;-68
2023/04/08 01:16:45;;;;;;;48.08;20.40;;;8.10;99.90;;;;;;4983901;28;20034;-65
2023/04/08 01:19:23;;;;;;;47.67;20.20;;;8.10;99.90;;;;;;4991697;28;20027;-66
2023/04/08 01:21:49;;;;;;;54.10;20.45;;;8.10;99.90;;;;;;4994506;28;20125;-65
2023/04/08 01:24:43;;;;;;;49.72;20.23;;;8.10;99.90;;;;;;4995032;28;20030;-66
2023/04/08 01:27:10;;;;;;;50.65;20.52;;;8.20;99.90;;;;;;4985541;28;20039;-65
2023/04/08 01:29:37;;;;;;;55.03;21.83;;;8.20;99.90;;;;;;4994633;28;20034;-65
2023/04/08 01:32:04;;;;;;;50.13;21.33;;;8.20;99.90;;;;;;4995041;28;20091;-66
2023/04/08 01:34:31;;;;;;;53.97;20.60;;;8.20;99.90;;;;;;4995576;28;20048;-65
2023/04/08 01:36:57;;;;;;;45.08;20.52;;;8.20;99.90;;;;;;4995164;28;20030;-65
2023/04/08 01:39:24;;;;;;;45.90;19.48;;;8.20;99.90;;;;;;4993774;28;20529;-65
2023/04/08 01:41:53;;;;;;;57.72;20.95;;;8.20;99.90;;;;;;4986285;28;20042;-65
2023/04/08 01:44:21;;;;;;;62.20;21.63;;;8.20;99.90;;;;;;4987906;28;20031;-65
2023/04/08 01:46:48;;;;;;;48.15;21.05;;;8.20;99.90;;;;;;4995150;28;20037;-68
2023/04/08 01:49:15;;;;;;;56.03;21.50;;;8.20;99.90;;;;;;4994981;28;20109;-67
2023/04/08 01:51:40;;;;;;;55.05;21.33;;;8.20;99.90;;;;;;4993978;28;20434;-68
2023/04/08 01:54:06;;;;;;;56.67;23.33;;;8.20;99.90;;;;;;4993676;28;20030;-65
2023/04/08 01:56:38;;;;;;;50.95;21.38;;;8.20;99.90;;;;;;4993309;28;20033;-64
2023/04/08 01:59:08;;;;;;;59.08;20.77;;;8.20;99.90;;;;;;4986412;28;20507;-65
2023/04/08 02:01:34;;;;;;;54.50;22.58;;;8.20;99.90;;;;;;4994743;28;20026;-65
2023/04/08 02:04:02;;;;;;;52.72;22.17;;;8.20;99.90;;;;;;4994942;28;20025;-65
2023/04/08 02:06:28;;;;;;;59.20;21.08;;;8.20;99.90;;;;;;4994834;28;20502;-66
2023/04/08 02:08:54;;;;;;;53.90;20.98;;;8.20;99.90;;;;;;4993097;28;20105;-65
2023/04/08 02:11:20;;;;;;;55.58;20.80;;;8.20;99.90;;;;;;4988517;28;20039;-66
2023/04/08 02:13:46;;;;;;;52.25;22.00;;;8.20;99.90;;;;;;4990988;28;20026;-65
2023/04/08 02:16:22;;;;;;;50.17;21.65;;;8.20;99.90;;;;;;4994381;28;20495;-65
2023/04/08 02:19:25;;;;;;;57.63;22.88;;;8.20;99.90;;;;;;5028997;23;20046;-68
2023/04/08 02:22:04;;;;;;;63.35;23.02;;;8.20;99.90;;;;;;5010566;28;20034;-67
2023/04/08 02:24:32;;;;;;;63.40;22.15;;;8.20;99.90;;;;;;5012020;28;20041;-67
2023/04/08 02:26:59;;;;;;;59.55;21.98;;;8.20;99.90;;;;;;5013600;28;20033;-66
2023/04/08 02:29:28;;;;;;;62.78;20.63;;;8.20;99.90;;;;;;5013598;28;20049;-67
2023/04/08 02:31:55;;;;;;;60.05;23.55;;;8.20;99.90;;;;;;5013216;28;20041;-67
2023/04/08 02:34:22;;;;;;;54.67;21.30;;;8.20;99.90;;;;;;5013657;28;20080;-67
2023/04/08 02:36:50;;;;;;;47.67;20.17;;;8.20;99.90;;;;;;4989447;28;20058;-68
2023/04/08 02:39:16;;;;;;;46.38;18.05;;;8.10;99.90;;;;;;4991777;28;20030;-66
2023/04/08 02:41:41;;;;;;;46.88;18.67;;;8.20;99.90;;;;;;4993796;28;20061;-67
2023/04/08 02:44:08;;;;;;;51.70;20.70;;;8.20;99.90;;;;;;4993879;28;20050;-67
2023/04/08 02:46:33;;;;;;;41.20;18.48;;;8.30;99.90;;;;;;4993735;28;20019;-67
2023/04/08 02:48:59;;;;;;;44.08;20.27;;;8.20;99.90;;;;;;4993579;28;20527;-67
2023/04/08 02:51:25;;;;;;;48.67;18.73;;;8.20;99.90;;;;;;4991030;28;20030;-67
2023/04/08 02:53:50;;;;;;;55.90;20.63;;;8.20;99.90;;;;;;4991817;28;20110;-66
2023/04/08 02:56:16;;;;;;;43.72;19.13;;;8.10;99.90;;;;;;4991710;28;20033;-67
2023/04/08 02:58:41;;;;;;;46.50;19.65;;;8.10;99.90;;;;;;4993316;28;20138;-67
2023/04/08 03:01:08;;;;;;;39.28;18.30;;;8.10;99.90;;;;;;4993514;28;20057;-66
2023/04/08 03:03:33;;;;;;;49.25;21.58;;;8.00;99.90;;;;;;4991701;28;20023;-66
2023/04/08 03:05:59;;;;;;;51.10;20.92;;;7.90;99.90;;;;;;5002548;28;20173;-67
2023/04/08 03:08:24;;;;;;;41.17;19.38;;;7.90;99.90;;;;;;5012802;28;20021;-66
2023/04/08 03:10:50;;;;;;;47.08;21.27;;;7.90;99.90;;;;;;5003499;28;20030;-66
2023/04/08 03:13:16;;;;;;;45.75;18.95;;;7.80;99.90;;;;;;4985346;28;20049;-67
2023/04/08 03:15:42;;;;;;;47.03;20.60;;;7.70;99.90;;;;;;4993113;28;20035;-66
2023/04/08 03:18:08;;;;;;;45.28;19.38;;;7.80;99.90;;;;;;4999650;28;20084;-67
2023/04/08 03:20:33;;;;;;;45.80;20.20;;;7.70;99.90;;;;;;5006992;28;20032;-66
2023/04/08 03:22:59;;;;;;;44.00;21.55;;;7.70;99.90;;;;;;5012770;28;20030;-67
2023/04/08 03:25:25;;;;;;;44.42;19.38;;;7.80;99.90;;;;;;4996695;28;20027;-67
2023/04/08 03:27:50;;;;;;;41.63;19.33;;;7.80;99.90;;;;;;4992680;28;20054;-67
2023/04/08 03:30:16;;;;;;;45.20;19.85;;;7.80;99.90;;;;;;4992226;28;20026;-66
2023/04/08 03:32:42;;;;;;;42.25;19.55;;;7.70;99.90;;;;;;5000219;28;20479;-66
2023/04/08 03:35:08;;;;;;;46.85;20.85;;;7.70;99.90;;;;;;5011278;28;20504;-66
2023/04/08 03:37:33;;;;;;;46.65;19.30;;;7.60;99.90;;;;;;5012285;28;20072;-66
2023/04/08 03:39:59;;;;;;;44.83;18.55;;;7.50;99.90;;;;;;4999537;28;20069;-67
2023/04/08 03:42:25;;;;;;;45.75;19.33;;;7.40;99.90;;;;;;4993100;28;20110;-67
2023/04/08 03:44:50;;;;;;;44.78;19.17;;;7.40;99.90;;;;;;4990980;28;20572;-67
2023/04/08 03:47:16;;;;;;;45.75;19.77;;;7.30;99.90;;;;;;5003621;28;20022;-68
2023/04/08 03:49:41;;;;;;;51.42;20.42;;;7.20;99.90;;;;;;5012353;28;20026;-67
2023/04/08 03:52:07;;;;;;;51.58;20.95;;;7.20;99.90;;;;;;5012240;28;20045;-67
2023/04/08 03:54:33;;;;;;;44.47;19.52;;;7.10;99.90;;;;;;4991121;28;20041;-68
2023/04/08 03:56:58;;;;;;;49.88;19.95;;;7.10;99.90;;;;;;4990643;28;20173;-67
2023/04/08 03:59:24;;;;;;;47.53;18.90;;;7.10;99.90;;;;;;4991093;28;20488;-67
2023/04/08 04:01:51;;;;;;;52.90;21.88;;;7.00;99.90;;;;;;5004376;28;20024;-67
2023/04/08 04:04:16;;;;;;;51.53;21.02;;;7.00;99.90;;;;;;4992647;28;20404;-67
2023/04/08 04:06:42;;;;;;;50.83;20.23;;;7.00;99.90;;;;;;4992504;28;20027;-67
2023/04/08 04:09:07;;;;;;;45.65;19.05;;;7.00;99.90;;;;;;4992199;28;20030;-67
2023/04/08 04:11:34;;;;;;;50.42;19.90;;;7.00;99.90;;;;;;4990756;28;20023;-67
2023/04/08 04:14:00;;;;;;;45.20;18.70;;;7.00;99.90;;;;;;4992905;28;20361;-67
2023/04/08 04:16:25;;;;;;;55.65;21.95;;;7.00;99.90;;;;;;5011765;28;20037;-67
2023/04/08 04:18:52;;;;;;;48.85;20.75;;;7.00;99.90;;;;;;5011501;28;20040;-67
2023/04/08 04:21:18;;;;;;;54.72;21.70;;;6.90;99.90;;;;;;5011835;28;20026;-67
2023/04/08 04:23:43;;;;;;;50.53;19.67;;;6.80;99.90;;;;;;5011965;28;20093;-67
2023/04/08 04:26:10;;;;;;;50.70;20.63;;;6.70;99.90;;;;;;4997067;28;20488;-67
2023/04/08 04:28:36;;;;;;;48.75;20.85;;;6.60;99.90;;;;;;4991679;28;20030;-68
2023/04/08 04:31:01;;;;;;;52.70;19.40;;;6.40;99.90;;;;;;4992159;28;20400;-67
2023/04/08 04:33:27;;;;;;;50.47;19.60;;;6.30;99.90;;;;;;4992184;28;20053;-67
2023/04/08 04:35:52;;;;;;;52.10;19.23;;;6.20;99.90;;;;;;4991992;28;20481;-67
2023/04/08 04:38:18;;;;;;;59.97;19.33;;;6.10;99.90;;;;;;4990903;28;20022;-66
2023/04/08 04:40:43;;;;;;;50.85;19.58;;;6.00;99.90;;;;;;4994535;28;20031;-67
2023/04/08 04:43:10;;;;;;;53.90;20.33;;;5.90;99.90;;;;;;4987932;28;20496;-67
2023/04/08 04:45:35;;;;;;;58.92;20.75;;;5.80;99.90;;;;;;4996287;28;20113;-68
2023/04/08 04:48:02;;;;;;;57.53;18.92;;;5.80;99.90;;;;;;4994362;28;20093;-67
2023/04/08 04:50:28;;;;;;;56.35;21.50;;;5.70;99.90;;;;;;4992220;28;20490;-66
2023/04/08 04:52:53;;;;;;;63.38;22.40;;;5.70;99.90;;;;;;4988776;28;20145;-67
2023/04/08 04:55:21;;;;;;;68.68;22.60;;;5.80;99.90;;;;;;5005197;28;20021;-67
2023/04/08 04:57:49;;;;;;;68.10;20.85;;;5.80;99.90;;;;;;4994304;28;20026;-67
2023/04/08 05:00:15;;;;;;;66.15;20.73;;;5.80;99.90;;;;;;4995784;28;20029;-67
2023/04/08 05:02:41;;;;;;;118.07;22.60;;;5.70;99.90;;;;;;4994855;28;20035;-67
2023/04/08 05:05:07;;;;;;;125.15;23.23;;;5.70;99.90;;;;;;4995504;28;20026;-67
2023/04/08 05:07:37;;;;;;;94.50;22.05;;;5.70;99.90;;;;;;5002660;28;20030;-68
2023/04/08 05:10:03;;;;;;;73.60;21.73;;;5.80;99.90;;;;;;5011379;28;20096;-67
2023/04/08 05:12:29;;;;;;;91.32;20.55;;;6.00;99.90;;;;;;5015379;28;20077;-67
2023/04/08 05:14:57;;;;;;;95.00;22.70;;;6.10;99.90;;;;;;5015230;28;20026;-67
2023/04/08 05:17:22;;;;;;;73.75;21.73;;;6.20;99.90;;;;;;5007312;28;20108;-67
2023/04/08 05:19:48;;;;;;;86.32;22.88;;;6.30;99.90;;;;;;4993371;28;20282;-67
2023/04/08 05:22:14;;;;;;;76.30;22.27;;;6.40;99.90;;;;;;5005601;28;20019;-68
2023/04/08 05:24:39;;;;;;;122.78;21.52;;;6.40;99.90;;;;;;5014904;28;20395;-68
2023/04/08 05:27:05;;;;;;;77.97;19.65;;;6.40;99.90;;;;;;5014778;28;20034;-68
2023/04/08 05:29:30;;;;;;;85.03;17.10;;;6.40;99.90;;;;;;5014771;28;20140;-67
2023/04/08 05:31:56;;;;;;;59.28;16.63;;;6.30;99.90;;;;;;5000850;28;20042;-67
2023/04/08 05:34:22;;;;;;;167.73;19.00;;;6.30;99.90;;;;;;4992344;28;20035;-67
2023/04/08 05:36:50;;;;;;;53.58;15.88;;;6.20;99.90;;;;;;4991281;28;20053;-67
2023/04/08 05:39:17;;;;;;;61.10;13.98;;;6.20;99.90;;;;;;4994700;28;20041;-67
2023/04/08 05:41:43;;;;;;;55.65;12.80;;;6.20;99.90;;;;;;4995111;28;20014;-67
2023/04/08 05:44:09;;;;;;;50.15;13.50;;;6.20;99.90;;;;;;4993928;28;20518;-67
2023/04/08 05:46:36;;;;;;;48.92;14.05;;;6.10;99.90;;;;;;4993206;28;20061;-67
2023/04/08 05:49:02;;;;;;;50.92;16.23;;;6.10;99.90;;;;;;5001760;28;20023;-68
2023/04/08 05:51:28;;;;;;;45.70;13.65;;;6.10;99.90;;;;;;4994759;28;20521;-67
2023/04/08 05:53:53;;;;;;;46.35;13.63;;;6.10;99.90;;;;;;4994835;28;20396;-67
2023/04/08 05:56:19;;;;;;;96.13;15.60;;;6.20;99.90;;;;;;4994686;28;20096;-67
2023/04/08 05:58:45;;;;;;;49.80;14.27;;;6.30;99.90;;;;;;4994620;28;20042;-67
2023/04/08 06:01:11;;;;;;;37.85;14.25;;;6.30;99.90;;;;;;4995169;28;20112;-68
2023/04/08 06:03:36;;;;;;;37.88;12.35;;;6.40;99.90;;;;;;5002801;28;20041;-67
2023/04/08 06:06:02;;;;;;;44.30;11.80;;;6.40;99.90;;;;;;4992541;28;20030;-67
2023/04/08 06:08:27;;;;;;;43.03;11.73;;;6.50;99.90;;;;;;4994162;28;20058;-67
2023/04/08 06:10:53;;;;;;;49.05;12.80;;;6.60;99.90;;;;;;4994543;28;20105;-67
2023/04/08 06:13:20;;;;;;;46.20;11.57;;;6.60;99.90;;;;;;4994522;28;20026;-67
2023/04/08 06:15:47;;;;;;;61.75;10.57;;;6.70;99.90;;;;;;4999233;28;20495;-68
2023/04/08 06:18:14;;;;;;;22.90;10.45;;;6.80;99.90;;;;;;4999150;28;20109;-67
2023/04/08 06:20:40;;;;;;;60.45;10.60;;;6.80;99.90;;;;;;4994317;28;20046;-68
2023/04/08 06:23:06;;;;;;;72.05;9.85;;;6.80;99.90;;;;;;4994308;28;20053;-67
2023/04/08 06:25:31;;;;;;;27.23;9.00;;;6.90;99.90;;;;;;4994268;28;20041;-68
2023/04/08 06:27:57;;;;;;;71.47;11.40;;;7.00;99.90;;;;;;4994100;28;20023;-68
2023/04/08 06:30:22;;;;;;;29.85;9.75;;;7.20;99.90;;;;;;5000646;28;20029;-67
2023/04/08 06:32:48;;;;;;;27.63;9.55;;;7.30;99.90;;;;;;5008355;28;20025;-68
2023/04/08 06:35:14;;;;;;;35.42;9.80;;;7.50;99.90;;;;;;4992106;28;20122;-67
2023/04/08 06:37:40;;;;;;;24.23;8.15;;;7.70;99.90;;;;;;4993544;28;20456;-67
2023/04/08 06:40:06;;;;;;;34.40;9.15;;;7.90;99.90;;;;;;4993994;28;20022;-67
2023/04/08 06:42:31;;;;;;;18.48;9.00;;;7.90;99.90;;;;;;4992685;28;20033;-68
2023/04/08 06:44:57;;;;;;;27.00;8.68;;;7.80;99.90;;;;;;4999967;28;20463;-68
2023/04/08 06:47:23;;;;;;;20.23;8.85;;;7.80;99.90;;;;;;4990174;28;20038;-67
2023/04/08 06:49:48;;;;;;;16.05;8.55;;;7.70;99.90;;;;;;4992490;28;20511;-67
2023/04/08 06:52:14;;;;;;;22.52;9.10;;;7.80;99.90;;;;;;5001759;28;20030;-67
2023/04/08 06:54:40;;;;;;;26.15;8.60;;;7.80;99.90;;;;;;5013539;28;20030;-68
2023/04/08 06:57:06;;;;;;;31.45;9.45;;;7.50;99.90;;;;;;4996742;28;20033;-68
2023/04/08 06:59:31;;;;;;;24.27;8.88;;;7.50;99.90;;;;;;4997120;28;20391;-68
2023/04/08 07:01:57;;;;;;;24.17;9.77;;;7.30;99.90;;;;;;5008463;28;20073;-66
2023/04/08 07:04:22;;;;;;;36.80;9.48;;;7.30;99.90;;;;;;4993626;28;20503;-67
2023/04/08 07:06:48;;;;;;;30.73;9.13;;;7.20;99.90;;;;;;4993325;28;20061;-67
2023/04/08 07:09:13;;;;;;;22.27;9.32;;;7.10;99.90;;;;;;4993282;28;20386;-66
2023/04/08 07:11:39;;;;;;;19.05;9.88;;;7.30;99.90;;;;;;4989962;28;21850;-66
2023/04/08 07:14:05;;;;;;;30.52;9.38;;;7.40;99.90;;;;;;5001087;28;20053;-67
2023/04/08 07:16:30;;;;;;;27.30;10.93;;;7.50;99.90;;;;;;4993170;28;20033;-67
2023/04/08 07:18:56;;;;;;;24.63;10.88;;;7.60;99.90;;;;;;4991868;28;20046;-67
2023/04/08 07:21:22;;;;;;;23.35;10.27;;;7.60;99.90;;;;;;4993133;28;20026;-67
2023/04/08 07:23:48;;;;;;;20.50;9.93;;;7.80;99.90;;;;;;4993410;28;20117;-67
2023/04/08 07:26:13;;;;;;;21.75;10.20;;;7.90;99.90;;;;;;4989278;28;20101;-67
2023/04/08 07:28:39;;;;;;;19.48;9.45;;;8.00;99.90;;;;;;4992784;28;20041;-66
2023/04/08 07:31:16;;;;;;;59.00;10.30;;;8.10;99.90;;;;;;4993122;28;20027;-66
2023/04/08 07:33:42;;;;;;;43.00;10.48;;;8.00;99.90;;;;;;4992979;28;20396;-67
2023/04/08 07:36:09;;;;;;;22.35;9.05;;;7.90;99.90;;;;;;4992839;28;20447;-66
2023/04/08 07:38:35;;;;;;;35.92;9.68;;;7.90;99.90;;;;;;4992684;28;20084;-66
2023/04/08 07:41:01;;;;;;;21.50;10.75;;;7.90;99.90;;;;;;4989439;28;20015;-67
2023/04/08 07:43:26;;;;;;;22.15;9.27;;;8.10;99.90;;;;;;4992609;28;20038;-66
2023/04/08 07:45:52;;;;;;;21.60;10.88;;;8.20;99.90;;;;;;4992768;28;20037;-68
2023/04/08 07:48:17;;;;;;;39.00;10.77;;;8.20;99.90;;;;;;4992370;28;20026;-67
2023/04/08 07:50:44;;;;;;;38.47;11.77;;;8.00;99.90;;;;;;4992783;28;20069;-67
2023/04/08 07:53:10;;;;;;;23.83;10.95;;;8.00;99.90;;;;;;4991139;28;20030;-67
2023/04/08 07:55:36;;;;;;;21.75;10.75;;;8.10;99.90;;;;;;4989042;28;20122;-67
2023/04/08 07:58:01;;;;;;;24.20;10.32;;;8.10;99.90;;;;;;4992159;28;20010;-67
2023/04/08 08:00:29;;;;;;;32.67;11.93;;;8.10;99.90;;;;;;4992578;28;20032;-67
2023/04/08 08:02:55;;;;;;;20.00;10.75;;;8.20;99.90;;;;;;4992438;28;20014;-67
2023/04/08 08:05:20;;;;;;;25.20;11.80;;;8.10;99.90;;;;;;4992597;28;20023;-68
2023/04/08 08:07:46;;;;;;;25.63;12.90;;;8.30;99.90;;;;;;4992374;28;20491;-67
2023/04/08 08:10:11;;;;;;;30.80;13.38;;;8.20;99.90;;;;;;4989026;28;20014;-68
2023/04/08 08:12:37;;;;;;;28.13;13.13;;;8.40;99.90;;;;;;4992294;28;20528;-67
2023/04/08 08:15:03;;;;;;;28.77;13.45;;;8.60;99.90;;;;;;4992385;28;20080;-68
2023/04/08 08:17:32;;;;;;;31.60;13.45;;;8.70;99.90;;;;;;4991822;28;20070;-68
2023/04/08 08:19:58;;;;;;;31.45;13.48;;;8.70;99.90;;;;;;5035286;23;20046;-69
2023/04/08 08:22:24;;;;;;;29.77;12.57;;;8.60;99.90;;;;;;5010787;28;20034;-68
2023/04/08 08:24:58;;;;;;;33.17;14.15;;;8.60;99.90;;;;;;5011102;28;20025;-67
2023/04/08 08:27:24;;;;;;;29.45;14.18;;;8.90;99.90;;;;;;5011666;28;20580;-67
2023/04/08 08:29:50;;;;;;;28.05;12.40;;;9.00;99.90;;;;;;5011372;28;20037;-67
2023/04/08 08:32:15;;;;;;;25.77;12.25;;;9.00;99.90;;;;;;5011857;28;20145;-66
2023/04/08 08:34:41;;;;;;;27.42;12.50;;;9.00;99.90;;;;;;5010523;28;20080;-67
2023/04/08 08:37:06;;;;;;;32.95;13.40;;;9.10;99.90;;;;;;5010240;28;20454;-68
2023/04/08 08:39:32;;;;;;;30.15;13.55;;;9.10;99.90;;;;;;5011453;28;20037;-68
2023/04/08 08:41:58;;;;;;;35.80;14.40;;;9.10;99.90;;;;;;5011584;28;20026;-68
2023/04/08 08:44:23;;;;;;;35.47;15.35;;;9.20;99.90;;;;;;5010132;28;20105;-67
2023/04/08 08:46:49;;;;;;;31.20;12.95;;;9.10;99.90;;;;;;5010459;28;20021;-67
2023/04/08 08:49:14;;;;;;;32.28;13.85;;;9.20;99.90;;;;;;5011220;28;20018;-67
2023/04/08 08:51:43;;;;;;;32.20;13.93;;;9.10;99.90;;;;;;5011686;28;20036;-67
2023/04/08 08:54:08;;;;;;;35.45;15.75;;;9.30;99.90;;;;;;5011672;28;20377;-67
2023/04/08 08:56:34;;;;;;;32.58;14.82;;;9.20;99.90;;;;;;5010171;28;20037;-67
2023/04/08 08:59:00;;;;;;;36.28;15.27;;;9.10;99.90;;;;;;5011140;28;20448;-68
2023/04/08 09:01:37;;;;;;;40.28;15.18;;;9.30;99.90;;;;;;5009922;28;20088;-67
2023/04/08 09:04:06;;;;;;;36.65;16.20;;;9.30;99.90;;;;;;5007027;28;20390;-67
2023/04/08 09:06:32;;;;;;;34.17;15.90;;;9.40;99.90;;;;;;5011457;28;20034;-67
2023/04/08 09:08:57;;;;;;;34.38;16.77;;;9.40;99.90;;;;;;5011282;28;20026;-67
2023/04/08 09:11:23;;;;;;;36.20;15.93;;;9.60;99.90;;;;;;5009903;28;20499;-68
2023/04/08 09:13:49;;;;;;;35.80;15.98;;;9.70;99.90;;;;;;5009956;28;20038;-67
2023/04/08 09:16:19;;;;;;;34.83;15.25;;;9.70;99.90;;;;;;5011305;28;20026;-68
2023/04/08 09:18:47;;;;;;;32.45;15.35;;;10.00;99.90;;;;;;5009908;28;20064;-68
2023/04/08 09:21:15;;;;;;;33.58;15.48;;;9.80;99.90;;;;;;5011431;28;20022;-68
2023/04/08 09:23:51;;;;;;;36.10;17.35;;;10.00;99.90;;;;;;5011154;28;20022;-67
2023/04/08 09:26:20;;;;;;;36.65;16.58;;;10.10;99.90;;;;;;5010238;28;20087;-70
2023/04/08 09:29:06;;;;;;;33.90;16.20;;;10.30;99.90;;;;;;5010057;28;20049;-67
2023/04/08 09:31:36;;;;;;;31.75;17.08;;;10.70;99.90;;;;;;5011162;28;20075;-68
2023/04/08 09:34:10;;;;;;;34.38;15.95;;;10.80;99.90;;;;;;5011294;28;20484;-68
2023/04/08 09:36:36;;;;;;;36.45;16.85;;;11.10;99.90;;;;;;5011220;28;20022;-68
2023/04/08 09:39:02;;;;;;;33.25;16.42;;;11.20;99.90;;;;;;5011022;28;20149;-68
2023/04/08 09:41:28;;;;;;;31.05;16.02;;;11.40;99.90;;;;;;5009600;28;20475;-68
2023/04/08 09:43:57;;;;;;;29.52;16.17;;;11.80;99.90;;;;;;5014606;28;20052;-67
2023/04/08 09:46:37;;;;;;;29.13;15.90;;;12.00;99.90;;;;;;5014535;28;20025;-67
2023/04/08 09:49:10;;;;;;;30.83;15.90;;;12.10;99.90;;;;;;5014425;28;20417;-68
2023/04/08 09:52:00;;;;;;;30.90;15.57;;;11.90;99.90;;;;;;5012555;28;20022;-67
2023/04/08 09:54:59;;;;;;;27.42;14.32;;;11.90;99.90;;;;;;4983146;28;20049;-66
2023/04/08 09:57:40;;;;;;;25.75;14.88;;;11.50;99.90;;;;;;5014219;28;20036;-67
2023/04/08 10:00:12;;;;;;;31.88;15.82;;;11.40;99.90;;;;;;5014617;28;20020;-66
2023/04/08 10:02:59;;;;;;;23.90;13.38;;;11.50;99.90;;;;;;5014336;28;20024;-67
2023/04/08 10:05:26;;;;;;;31.10;14.38;;;11.50;99.90;;;;;;5012250;28;20033;-67
2023/04/08 10:07:54;;;;;;;27.95;14.25;;;11.70;99.90;;;;;;5013923;28;20029;-68
2023/04/08 10:10:21;;;;;;;24.10;14.27;;;11.70;99.90;;;;;;5014162;28;20022;-67
2023/04/08 10:12:47;;;;;;;27.42;15.02;;;11.60;99.90;;;;;;5012915;28;20061;-67
2023/04/08 10:15:30;;;;;;;24.38;13.18;;;11.70;99.90;;;;;;5014071;28;20035;-69
2023/04/08 10:18:17;;;;;;;24.00;13.40;;;11.80;99.90;;;;;;5012120;28;20455;-67
2023/04/08 10:20:47;;;;;;;26.88;14.50;;;12.00;99.90;;;;;;5006147;28;20072;-68
2023/04/08 10:23:15;;;;;;;24.52;13.77;;;12.20;99.90;;;;;;5014005;28;20439;-67
2023/04/08 10:25:46;;;;;;;26.42;13.63;;;12.40;99.90;;;;;;5013911;28;20026;-68
2023/04/08 10:28:11;;;;;;;24.77;13.50;;;12.30;99.90;;;;;;5013737;28;20022;-67
2023/04/08 10:30:40;;;;;;;25.98;14.32;;;12.20;99.90;;;;;;5013819;28;20030;-67
2023/04/08 10:33:24;;;;;;;27.02;14.63;;;12.20;99.90;;;;;;5011382;28;20708;-68
2023/04/08 10:35:54;;;;;;;23.63;13.73;;;11.80;99.90;;;;;;5013713;28;20120;-68
2023/04/08 10:38:20;;;;;;;26.13;14.95;;;12.30;99.90;;;;;;5013523;28;20032;-67
2023/04/08 10:40:47;;;;;;;24.77;13.00;;;12.40;99.90;;;;;;5013656;28;20121;-68
2023/04/08 10:43:14;;;;;;;28.05;14.68;;;12.60;99.90;;;;;;5013582;28;20022;-68
2023/04/08 10:45:41;;;;;;;26.33;14.25;;;12.80;99.90;;;;;;5011357;28;20373;-68
2023/04/08 10:48:15;;;;;;;28.80;15.57;;;12.90;99.90;;;;;;5013203;28;20044;-67
2023/04/08 10:50:40;;;;;;;24.23;13.40;;;12.80;99.90;;;;;;5013421;28;20018;-68
2023/04/08 10:53:07;;;;;;;20.27;11.98;;;12.60;99.90;;;;;;5013082;28;20026;-67
2023/04/08 10:55:33;;;;;;;21.25;11.75;;;12.80;99.90;;;;;;5012315;28;20018;-67
2023/04/08 10:58:10;;;;;;;21.50;12.15;;;13.00;99.90;;;;;;5010691;28;20116;-68
2023/04/08 11:00:35;;;;;;;18.75;11.85;;;13.10;99.90;;;;;;5011290;28;20424;-67
2023/04/08 11:03:06;;;;;;;19.48;11.80;;;13.00;99.90;;;;;;5013214;28;20022;-67
2023/04/08 11:05:32;;;;;;;26.17;12.68;;;12.70;99.90;;;;;;5013216;28;20033;-67
2023/04/08 11:07:59;;;;;;;18.17;10.30;;;12.90;99.90;;;;;;5012790;28;20018;-66
2023/04/08 11:10:25;;;;;;;22.45;12.40;;;12.60;99.90;;;;;;5011303;28;20034;-68
2023/04/08 11:12:55;;;;;;;22.95;12.48;;;12.80;99.90;;;;;;5011356;28;20442;-66
2023/04/08 11:15:23;;;;;;;18.88;11.20;;;12.90;99.90;;;;;;5012718;28;20026;-67
2023/04/08 11:17:49;;;;;;;21.67;12.07;;;13.00;99.90;;;;;;5012671;28;20112;-68
2023/04/08 11:20:15;;;;;;;21.92;12.68;;;12.90;99.90;;;;;;5012858;28;20037;-67
2023/04/08 11:22:42;;;;;;;24.17;13.73;;;12.60;99.90;;;;;;5008808;28;20168;-68
2023/04/08 11:25:09;;;;;;;26.00;12.55;;;12.40;99.90;;;;;;5011808;28;20037;-68
2023/04/08 11:27:35;;;;;;;21.73;13.10;;;12.50;99.90;;;;;;5012665;28;20034;-68
2023/04/08 11:30:02;;;;;;;23.80;12.73;;;12.40;99.90;;;;;;5012780;28;20412;-68
2023/04/08 11:32:28;;;;;;;21.77;12.57;;;12.30;99.90;;;;;;5012630;28;20115;-68
2023/04/08 11:34:54;;;;;;;17.58;10.00;;;12.50;99.90;;;;;;5012324;28;20561;-68
2023/04/08 11:37:21;;;;;;;13.63;8.18;;;12.50;99.90;;;;;;5010322;28;20072;-68
2023/04/08 11:39:46;;;;;;;14.27;8.00;;;12.50;99.90;;;;;;5012684;28;20076;-67
2023/04/08 11:42:28;;;;;;;15.05;7.10;;;12.60;99.00;;;;;;5012434;28;20029;-68
2023/04/08 11:44:54;;;;;;;17.23;8.55;;;12.70;98.50;;;;;;5012477;28;20521;-68
2023/04/08 11:47:19;;;;;;;14.60;7.20;;;12.60;98.00;;;;;;5012262;28;20029;-68
2023/04/08 11:49:46;;;;;;;15.63;7.45;;;12.50;98.50;;;;;;5009438;28;20491;-67
2023/04/08 11:52:11;;;;;;;17.33;8.20;;;12.40;98.90;;;;;;5011481;28;20053;-67
2023/04/08 11:54:41;;;;;;;11.02;6.80;;;12.50;98.90;;;;;;5011013;28;20057;-68
2023/04/08 11:57:08;;;;;;;12.43;7.05;;;12.50;99.90;;;;;;5012200;28;20391;-68
2023/04/08 11:59:35;;;;;;;12.57;6.30;;;12.60;99.10;;;;;;5012045;28;20569;-68
2023/04/08 12:02:02;;;;;;;12.32;6.97;;;12.70;97.70;;;;;;5007020;28;20104;-67
2023/04/08 12:04:28;;;;;;;12.93;6.80;;;12.80;97.50;;;;;;5009004;28;20483;-67
2023/04/08 12:06:54;;;;;;;13.75;6.78;;;12.90;96.70;;;;;;5012092;28;20395;-67
2023/04/08 12:09:20;;;;;;;20.17;7.30;;;12.80;97.50;;;;;;5011924;28;20030;-68
2023/04/08 12:11:46;;;;;;;11.63;6.63;;;12.80;98.90;;;;;;5012049;28;20040;-67
2023/04/08 12:14:11;;;;;;;10.80;6.43;;;12.80;96.40;;;;;;5012104;28;20029;-68
2023/04/08 12:16:37;;;;;;;10.05;5.88;;;12.60;96.80;;;;;;5010422;28;20496;-68
2023/04/08 12:19:02;;;;;;;7.60;5.20;;;12.50;97.80;;;;;;5010736;28;20061;-68
2023/04/08 12:21:28;;;;;;;12.70;7.05;;;12.60;98.80;;;;;;5012018;28;20029;-68
2023/04/08 12:23:53;;;;;;;13.63;6.13;;;12.70;97.50;;;;;;5011887;28;20484;-68
2023/04/08 12:26:19;;;;;;;14.82;7.03;;;12.70;98.10;;;;;;5011984;28;20399;-67
2023/04/08 12:28:45;;;;;;;10.05;5.55;;;12.70;97.70;;;;;;5011669;28;20058;-66
2023/04/08 12:31:11;;;;;;;13.55;7.47;;;12.90;97.30;;;;;;5010361;28;20034;-67
2023/04/08 12:33:37;;;;;;;9.98;6.30;;;12.90;97.40;;;;;;5010639;28;20022;-68
2023/04/08 12:36:02;;;;;;;12.10;5.63;;;12.90;97.30;;;;;;5011740;28;20442;-69